createdAt,value
2023-03-06T00:01:31.152Z,63.03
2023-03-06T00:06:52.086Z,62.77
2023-03-06T00:12:12.900Z,63.44
2023-03-06T00:17:33.772Z,63.22
2023-03-06T00:22:56.055Z,63.04
2023-03-06T00:28:17.980Z,63.20
2023-03-06T00:33:38.625Z,63.54
2023-03-06T00:38:59.356Z,63.87
2023-03-06T00:44:20.277Z,63.52
2023-03-06T00:49:41.540Z,63.91
2023-03-06T00:55:02.650Z,63.22
2023-03-06T01:00:23.554Z,63.61
2023-03-06T01:05:44.285Z,63.87
2023-03-06T01:11:06.075Z,63.81
2023-03-06T01:16:26.936Z,64.02
2023-03-06T01:21:47.730Z,63.63
2023-03-06T01:27:08.429Z,63.65
2023-03-06T01:32:29.059Z,63.80
2023-03-06T01:37:49.823Z,63.67
2023-03-06T01:43:31.735Z,63.74
2023-03-06T01:48:58.235Z,63.52
2023-03-06T01:54:27.255Z,63.74
2023-03-06T01:59:48.777Z,63.50
2023-03-06T02:05:09.986Z,64.23
2023-03-06T02:10:31.028Z,63.83
2023-03-06T02:15:51.679Z,64.05
2023-03-06T02:21:20.346Z,63.89
2023-03-06T02:26:41.278Z,64.01
2023-03-06T02:32:02.538Z,64.48
2023-03-06T02:37:24.470Z,64.20
2023-03-06T02:42:49.946Z,64.18
2023-03-06T02:48:12.707Z,64.26
2023-03-06T02:53:33.429Z,64.96
2023-03-06T02:58:54.172Z,64.68
2023-03-06T03:04:15.397Z,64.80
2023-03-06T03:09:37.318Z,64.47
2023-03-06T03:14:59.988Z,64.84
2023-03-06T03:20:22.390Z,64.76
2023-03-06T03:25:44.358Z,65.34
2023-03-06T03:31:06.477Z,65.37
2023-03-06T03:36:28.612Z,65.22
2023-03-06T03:41:49.841Z,65.45
2023-03-06T03:47:10.895Z,65.23
2023-03-06T03:52:32.093Z,65.11
2023-03-06T03:57:53.364Z,65.55
2023-03-06T04:03:14.090Z,65.49
2023-03-06T04:08:38.516Z,65.71
2023-03-06T04:13:59.746Z,65.87
2023-03-06T04:19:20.369Z,66.55
2023-03-06T04:24:41.083Z,65.94
2023-03-06T04:30:02.954Z,65.83
2023-03-06T04:35:25.211Z,66.36
2023-03-06T04:40:52.648Z,66.24
2023-03-06T04:46:13.364Z,66.75
2023-03-06T04:51:37.752Z,66.32
2023-03-06T04:56:58.901Z,66.86
2023-03-06T05:02:20.726Z,66.33
2023-03-06T05:07:41.754Z,66.82
2023-03-06T05:13:02.727Z,66.86
2023-03-06T05:18:23.818Z,67.10
2023-03-06T05:23:44.841Z,66.64
2023-03-06T05:29:05.638Z,66.68
2023-03-06T05:34:26.475Z,66.59
2023-03-06T05:39:47.372Z,67.06
2023-03-06T05:45:08.878Z,66.89
2023-03-06T05:50:30.173Z,66.73
2023-03-06T05:55:57.445Z,66.39
2023-03-06T06:01:19.360Z,66.07
2023-03-06T06:06:40.268Z,65.40
2023-03-06T06:12:02.655Z,65.29
2023-03-06T06:17:23.570Z,64.13
2023-03-06T06:22:44.572Z,64.03
2023-03-06T06:28:05.757Z,64.56
2023-03-06T06:33:26.729Z,64.38
2023-03-06T06:38:47.871Z,63.74
2023-03-06T06:44:11.256Z,63.40
2023-03-06T06:49:32.778Z,63.48
2023-03-06T06:54:53.604Z,62.04
2023-03-06T07:00:15.258Z,60.18
2023-03-06T07:05:35.715Z,58.63
2023-03-06T07:10:57.051Z,59.71
2023-03-06T07:16:18.168Z,59.72
2023-03-06T07:21:39.295Z,59.70
2023-03-06T07:27:00.324Z,60.33
2023-03-06T07:32:21.391Z,59.94
2023-03-06T07:37:42.863Z,59.65
2023-03-06T07:43:18.386Z,59.41
2023-03-06T07:48:47.413Z,58.19
2023-03-06T07:54:08.419Z,58.95
2023-03-06T07:59:29.112Z,58.68
2023-03-06T08:04:53.684Z,58.93
2023-03-06T08:10:15.038Z,58.62
2023-03-06T08:15:35.781Z,59.23
2023-03-06T08:21:06.359Z,58.85
2023-03-06T08:26:29.164Z,59.03
2023-03-06T08:31:50.035Z,59.26
2023-03-06T08:37:10.885Z,58.89
2023-03-06T08:42:32.218Z,57.81
2023-03-06T08:47:53.047Z,57.63
2023-03-06T08:53:13.946Z,57.88
2023-03-06T08:58:34.994Z,57.48
2023-03-06T09:03:57.719Z,56.31
2023-03-06T09:09:18.921Z,55.42
2023-03-06T09:14:40.000Z,55.14
2023-03-06T09:20:00.713Z,51.55
2023-03-06T09:25:23.309Z,51.44
2023-03-06T09:30:44.030Z,52.40
2023-03-06T09:36:05.710Z,50.35
2023-03-06T09:41:31.069Z,48.65
2023-03-06T09:47:00.977Z,46.75
2023-03-06T09:52:33.938Z,47.54
2023-03-06T09:57:56.191Z,48.21
2023-03-06T10:03:39.713Z,49.13
2023-03-06T10:09:41.487Z,49.11
2023-03-06T10:15:07.291Z,49.13
2023-03-06T10:20:49.702Z,49.01
2023-03-06T10:26:15.717Z,49.23
2023-03-06T10:31:36.427Z,49.70
2023-03-06T10:36:58.631Z,49.16
2023-03-06T10:42:19.471Z,47.70
2023-03-06T10:47:40.410Z,46.87
2023-03-06T10:53:10.757Z,46.06
2023-03-06T10:58:32.571Z,46.50
2023-03-06T11:03:54.222Z,46.79
2023-03-06T11:09:16.158Z,45.23
2023-03-06T11:14:37.045Z,44.73
2023-03-06T11:20:17.678Z,43.42
2023-03-06T11:25:43.910Z,44.19
2023-03-06T11:31:18.582Z,45.89
2023-03-06T11:36:48.028Z,46.04
2023-03-06T11:42:42.967Z,46.35
2023-03-06T11:48:13.937Z,45.40
2023-03-06T11:53:39.197Z,45.52
2023-03-06T11:59:18.845Z,45.20
2023-03-06T12:05:07.244Z,43.99
2023-03-06T12:10:31.782Z,43.75
2023-03-06T12:16:04.790Z,42.77
2023-03-06T12:21:37.759Z,41.74
2023-03-06T12:27:24.859Z,41.83
2023-03-06T12:33:10.418Z,42.21
2023-03-06T12:38:44.148Z,42.18
2023-03-06T12:44:26.368Z,41.27
2023-03-06T12:50:17.218Z,40.94
2023-03-06T12:55:46.301Z,41.42
2023-03-06T13:01:28.693Z,41.62
2023-03-06T13:07:04.639Z,41.89
2023-03-06T13:12:47.203Z,41.27
2023-03-06T13:18:23.390Z,41.64
2023-03-06T13:23:48.470Z,42.19
2023-03-06T13:29:36.966Z,42.30
2023-03-06T13:34:58.259Z,42.80
2023-03-06T13:40:27.283Z,42.99
2023-03-06T13:45:48.189Z,43.51
2023-03-06T13:51:23.048Z,42.96
2023-03-06T13:56:49.972Z,43.00
2023-03-06T14:02:37.201Z,42.18
2023-03-06T14:08:07.833Z,42.29
2023-03-06T14:13:41.845Z,43.02
2023-03-06T14:19:15.678Z,42.81
2023-03-06T14:24:38.330Z,43.35
2023-03-06T14:30:07.328Z,43.61
2023-03-06T14:35:32.338Z,42.86
2023-03-06T14:40:53.843Z,42.98
2023-03-06T14:46:19.977Z,44.00
2023-03-06T14:51:46.062Z,44.56
2023-03-06T14:57:08.985Z,44.44
2023-03-06T15:02:33.023Z,45.57
2023-03-06T15:07:55.308Z,46.48
2023-03-06T15:13:21.508Z,48.72
2023-03-06T15:19:00.450Z,50.38
2023-03-06T15:24:35.181Z,50.51
2023-03-06T15:30:34.070Z,51.57
2023-03-06T15:35:57.607Z,50.60
2023-03-06T15:41:23.196Z,51.93
2023-03-06T15:46:44.981Z,53.93
2023-03-06T15:52:07.040Z,53.69
2023-03-06T15:57:31.634Z,54.38
2023-03-06T16:02:53.394Z,57.62
2023-03-06T16:08:15.482Z,57.34
2023-03-06T16:13:36.854Z,58.52
2023-03-06T16:18:58.155Z,57.30
2023-03-06T16:24:19.334Z,57.79
2023-03-06T16:29:40.329Z,57.33
2023-03-06T16:35:01.515Z,58.68
2023-03-06T16:40:24.947Z,59.71
2023-03-06T16:45:46.104Z,58.97
2023-03-06T16:51:07.516Z,59.21
2023-03-06T16:56:29.124Z,60.85
2023-03-06T17:01:50.169Z,59.55
2023-03-06T17:07:11.643Z,60.09
2023-03-06T17:12:32.545Z,61.61
2023-03-06T17:17:53.690Z,61.00
2023-03-06T17:23:14.562Z,61.62
2023-03-06T17:28:36.468Z,61.63
2023-03-06T17:34:00.574Z,61.23
2023-03-06T17:39:21.411Z,62.05
2023-03-06T17:44:42.653Z,62.00
2023-03-06T17:50:04.145Z,63.26
2023-03-06T17:55:27.131Z,62.46
2023-03-06T18:00:48.433Z,62.65
2023-03-06T18:06:09.594Z,63.28
2023-03-06T18:11:30.733Z,63.98
2023-03-06T18:16:51.786Z,64.30
2023-03-06T18:22:12.772Z,64.20
2023-03-06T18:27:34.292Z,64.11
2023-03-06T18:32:55.269Z,64.47
2023-03-06T18:38:16.561Z,64.41
2023-03-06T18:43:37.675Z,64.79
2023-03-06T18:48:58.486Z,63.98
2023-03-06T18:54:19.360Z,63.90
2023-03-06T18:59:40.077Z,64.78
2023-03-06T19:05:00.839Z,64.75
2023-03-06T19:10:22.570Z,64.06
2023-03-06T19:15:48.119Z,65.01
2023-03-06T19:21:14.265Z,64.79
2023-03-06T19:26:35.903Z,64.15
2023-03-06T19:31:57.461Z,64.43
2023-03-06T19:37:18.754Z,64.16
2023-03-06T19:42:39.710Z,64.07
2023-03-06T19:48:01.003Z,64.04
2023-03-06T19:53:23.151Z,63.70
2023-03-06T19:58:43.973Z,63.89
2023-03-06T20:04:04.779Z,63.71
2023-03-06T20:09:26.019Z,63.75
2023-03-06T20:14:47.233Z,63.52
2023-03-06T20:20:09.349Z,63.55
2023-03-06T20:25:30.764Z,63.36
2023-03-06T20:30:51.740Z,63.37
2023-03-06T20:36:32.787Z,63.00
2023-03-06T20:41:53.866Z,63.42
2023-03-06T20:47:14.688Z,63.63
2023-03-06T20:52:35.526Z,63.73
2023-03-06T20:57:56.578Z,64.32
2023-03-06T21:03:17.376Z,63.95
2023-03-06T21:08:38.100Z,64.57
2023-03-06T21:13:58.813Z,64.69
2023-03-06T21:19:20.162Z,64.74
2023-03-06T21:24:41.463Z,64.99
2023-03-06T21:30:02.458Z,65.00
2023-03-06T21:35:23.762Z,64.78
2023-03-06T21:40:45.518Z,65.34
2023-03-06T21:46:07.039Z,65.33
2023-03-06T21:51:28.448Z,64.79
2023-03-06T21:56:49.713Z,65.01
2023-03-06T22:02:10.768Z,64.88
2023-03-06T22:07:34.961Z,64.69
2023-03-06T22:12:55.885Z,64.45
2023-03-06T22:18:16.859Z,64.95
2023-03-06T22:23:41.928Z,64.56
2023-03-06T22:29:05.366Z,64.54
2023-03-06T22:34:26.848Z,64.91
2023-03-06T22:39:47.876Z,64.30
2023-03-06T22:45:09.414Z,64.46
2023-03-06T22:50:32.504Z,64.65
2023-03-06T22:55:53.579Z,64.99
2023-03-06T23:01:16.505Z,65.21
2023-03-06T23:06:39.703Z,64.85
2023-03-06T23:12:00.645Z,65.28
2023-03-06T23:17:40.088Z,65.49
2023-03-06T23:23:19.839Z,65.86
2023-03-06T23:28:40.893Z,65.83
2023-03-06T23:34:02.505Z,66.05
2023-03-06T23:39:23.853Z,66.00
2023-03-06T23:44:45.216Z,66.33
2023-03-06T23:50:07.211Z,66.37
2023-03-06T23:55:27.654Z,65.85
